createdAt,value
2017-08-31T00:00:03.317Z,60.50
2017-08-31T00:02:31.389Z,60.00
2017-08-31T00:04:59.477Z,60.00
2017-08-31T00:07:27.976Z,60.00
2017-08-31T00:09:56.034Z,60.60
2017-08-31T00:12:24.122Z,60.40
2017-08-31T00:14:52.224Z,61.60
2017-08-31T00:17:20.686Z,62.30
2017-08-31T00:19:48.782Z,62.70
2017-08-31T00:22:16.877Z,61.90
2017-08-31T00:24:44.953Z,61.70
2017-08-31T00:27:13.474Z,61.20
2017-08-31T00:29:41.517Z,61.50
2017-08-31T00:32:09.586Z,61.40
2017-08-31T00:34:37.674Z,61.60
2017-08-31T00:37:06.517Z,61.70
2017-08-31T00:39:34.605Z,61.30
2017-08-31T00:42:02.693Z,61.80
2017-08-31T00:44:30.770Z,61.70
2017-08-31T00:46:59.647Z,61.60
2017-08-31T00:49:27.720Z,61.70
2017-08-31T00:51:55.791Z,61.60
2017-08-31T00:54:23.886Z,61.20
2017-08-31T00:56:51.957Z,61.30
2017-08-31T00:59:20.817Z,61.50
2017-08-31T01:01:48.905Z,61.60
2017-08-31T01:04:16.977Z,61.30
2017-08-31T01:06:45.069Z,61.60
2017-08-31T01:09:13.175Z,62.40
2017-08-31T01:11:41.251Z,62.80
2017-08-31T01:14:09.327Z,63.40
2017-08-31T01:16:37.422Z,62.80
2017-08-31T01:19:06.281Z,63.20
2017-08-31T01:21:34.745Z,63.50
2017-08-31T01:24:03.633Z,63.20
2017-08-31T01:26:32.082Z,63.00
2017-08-31T01:29:00.158Z,63.10
2017-08-31T01:31:28.255Z,62.80
2017-08-31T01:33:56.334Z,63.30
2017-08-31T01:36:24.430Z,62.70
2017-08-31T01:38:52.512Z,62.40
2017-08-31T01:41:20.598Z,62.40
2017-08-31T01:43:48.671Z,62.10
2017-08-31T01:46:17.614Z,62.10
2017-08-31T01:48:45.651Z,62.10
2017-08-31T01:51:14.165Z,61.70
2017-08-31T01:53:42.268Z,61.60
2017-08-31T01:56:10.740Z,61.80
2017-08-31T01:58:38.811Z,61.70
2017-08-31T02:01:07.676Z,62.10
2017-08-31T02:03:35.752Z,61.90
2017-08-31T02:06:04.610Z,61.60
2017-08-31T02:08:32.687Z,61.70
2017-08-31T02:11:00.790Z,61.30
2017-08-31T02:13:28.863Z,61.10
2017-08-31T02:15:56.959Z,61.20
2017-08-31T02:18:25.827Z,61.20
2017-08-31T02:20:53.922Z,61.30
2017-08-31T02:23:22.019Z,61.20
2017-08-31T02:25:50.175Z,61.80
2017-08-31T02:28:18.255Z,61.40
2017-08-31T02:30:46.347Z,61.20
2017-08-31T02:33:14.423Z,61.30
2017-08-31T02:35:42.939Z,61.10
2017-08-31T02:38:11.010Z,60.90
2017-08-31T02:40:39.087Z,60.90
2017-08-31T02:43:07.182Z,61.30
2017-08-31T02:45:35.255Z,61.20
2017-08-31T02:48:03.374Z,61.00
2017-08-31T02:50:31.454Z,61.30
2017-08-31T02:52:59.523Z,61.90
2017-08-31T02:55:27.627Z,61.00
2017-08-31T02:57:55.699Z,61.00
2017-08-31T03:00:24.554Z,60.90
2017-08-31T03:02:52.634Z,61.30
2017-08-31T03:05:20.710Z,61.50
2017-08-31T03:07:48.811Z,61.70
2017-08-31T03:10:16.906Z,62.20
2017-08-31T03:12:45.011Z,62.00
2017-08-31T03:15:13.106Z,62.10
2017-08-31T03:17:41.183Z,62.70
2017-08-31T03:20:09.289Z,62.60
2017-08-31T03:22:37.755Z,62.60
2017-08-31T03:25:06.635Z,63.00
2017-08-31T03:27:35.108Z,62.80
2017-08-31T03:30:03.186Z,63.10
2017-08-31T03:32:31.285Z,64.00
2017-08-31T03:34:59.358Z,64.10
2017-08-31T03:37:27.459Z,65.00
2017-08-31T03:39:55.559Z,66.40
2017-08-31T03:42:23.634Z,66.70
2017-08-31T03:44:52.136Z,67.80
2017-08-31T03:47:21.003Z,68.80
2017-08-31T03:49:49.466Z,68.10
2017-08-31T03:52:17.563Z,67.60
2017-08-31T03:54:45.922Z,67.40
2017-08-31T03:57:14.436Z,67.00
2017-08-31T03:59:42.499Z,66.50
2017-08-31T04:02:11.006Z,66.80
2017-08-31T04:04:39.089Z,67.40
2017-08-31T04:07:07.931Z,67.80
2017-08-31T04:09:36.038Z,69.00
2017-08-31T04:12:04.882Z,70.50
2017-08-31T04:14:32.954Z,70.70
2017-08-31T04:17:01.815Z,72.70
2017-08-31T04:19:29.885Z,74.00
2017-08-31T04:21:58.386Z,72.70
2017-08-31T04:24:27.222Z,72.90
2017-08-31T04:26:55.691Z,71.50
2017-08-31T04:29:23.783Z,72.00
2017-08-31T04:31:51.863Z,72.00
2017-08-31T04:34:20.727Z,71.00
2017-08-31T04:36:49.567Z,70.80
2017-08-31T04:39:17.670Z,70.80
2017-08-31T04:41:46.506Z,70.50
2017-08-31T04:44:15.346Z,70.60
2017-08-31T04:46:43.458Z,70.70
2017-08-31T04:49:11.538Z,71.30
2017-08-31T04:51:39.611Z,72.40
2017-08-31T04:54:07.722Z,72.00
2017-08-31T04:56:35.794Z,72.10
2017-08-31T04:59:03.871Z,72.20
2017-08-31T05:01:32.362Z,72.30
2017-08-31T05:04:01.206Z,72.40
2017-08-31T05:06:29.312Z,72.80
2017-08-31T05:08:58.149Z,72.80
2017-08-31T05:11:26.246Z,72.60
2017-08-31T05:13:54.347Z,73.10
2017-08-31T05:16:22.462Z,73.50
2017-08-31T05:18:50.542Z,74.20
2017-08-31T05:21:18.623Z,75.90
2017-08-31T05:23:46.715Z,76.10
2017-08-31T05:26:15.574Z,76.50
2017-08-31T05:28:43.646Z,77.40
2017-08-31T05:31:11.742Z,78.30
2017-08-31T05:33:39.838Z,78.70
2017-08-31T05:36:07.915Z,80.50
2017-08-31T05:38:36.063Z,81.10
2017-08-31T05:41:04.140Z,81.30
2017-08-31T05:43:32.234Z,82.10
2017-08-31T05:46:00.452Z,82.50
2017-08-31T05:50:58.608Z,84.00
2017-08-31T05:53:27.450Z,84.30
2017-08-31T05:55:55.550Z,84.40
2017-08-31T05:58:24.026Z,85.80
2017-08-31T06:00:52.123Z,86.20
2017-08-31T06:03:20.618Z,86.20
2017-08-31T06:05:48.731Z,86.40
2017-08-31T06:08:16.807Z,86.00
2017-08-31T06:10:44.882Z,84.40
2017-08-31T06:13:12.986Z,85.50
2017-08-31T06:15:41.063Z,85.20
2017-08-31T06:18:09.910Z,85.70
2017-08-31T06:20:38.009Z,85.80
2017-08-31T06:23:06.111Z,86.10
2017-08-31T06:25:34.207Z,86.10
2017-08-31T06:28:03.049Z,85.60
2017-08-31T06:30:31.165Z,86.20
2017-08-31T06:32:59.247Z,85.10
2017-08-31T06:35:28.090Z,86.30
2017-08-31T06:37:56.195Z,85.20
2017-08-31T06:40:24.266Z,84.60
2017-08-31T06:42:52.373Z,85.30
2017-08-31T06:45:20.855Z,85.30
2017-08-31T06:47:48.952Z,86.30
2017-08-31T06:50:17.827Z,87.20
2017-08-31T06:52:45.903Z,86.10
2017-08-31T06:55:13.974Z,85.80
2017-08-31T06:57:43.597Z,87.30
2017-08-31T07:00:11.671Z,87.30
2017-08-31T07:02:39.742Z,87.10
2017-08-31T07:05:08.685Z,87.30
2017-08-31T07:07:36.717Z,86.60
2017-08-31T07:10:05.559Z,86.70
2017-08-31T07:12:33.679Z,85.80
2017-08-31T07:15:01.760Z,86.50
2017-08-31T07:17:29.856Z,87.00
2017-08-31T07:19:57.962Z,86.40
2017-08-31T07:22:26.034Z,86.10
2017-08-31T07:24:54.130Z,85.90
2017-08-31T07:27:22.664Z,84.90
2017-08-31T07:29:50.700Z,84.00
2017-08-31T07:32:18.799Z,84.60
2017-08-31T07:34:46.903Z,83.70
2017-08-31T07:37:15.768Z,83.90
2017-08-31T07:39:43.819Z,83.90
2017-08-31T07:42:11.948Z,82.80
2017-08-31T07:44:40.023Z,81.60
2017-08-31T07:47:08.569Z,79.90
2017-08-31T07:49:36.626Z,77.80
2017-08-31T07:52:04.739Z,75.70
2017-08-31T07:54:32.810Z,73.90
2017-08-31T07:57:01.676Z,73.40
2017-08-31T07:59:29.759Z,67.40
2017-08-31T08:01:57.838Z,66.40
2017-08-31T08:04:25.930Z,69.30
2017-08-31T08:06:54.007Z,70.50
2017-08-31T08:09:22.103Z,71.20
2017-08-31T08:11:50.199Z,74.10
2017-08-31T08:14:18.274Z,78.40
2017-08-31T08:16:46.368Z,79.50
2017-08-31T08:19:14.446Z,75.10
2017-08-31T08:21:42.570Z,75.20
2017-08-31T08:24:10.643Z,69.90
2017-08-31T08:26:39.518Z,71.70
2017-08-31T08:29:07.586Z,65.30
2017-08-31T08:31:35.658Z,66.90
2017-08-31T08:34:03.777Z,62.40
2017-08-31T08:36:31.847Z,64.80
2017-08-31T08:38:59.924Z,63.50
2017-08-31T08:41:28.020Z,63.30
2017-08-31T08:43:56.098Z,64.10
2017-08-31T08:46:24.191Z,62.50
2017-08-31T08:48:52.268Z,61.20
2017-08-31T08:51:20.782Z,63.50
2017-08-31T08:53:48.850Z,58.90
2017-08-31T08:56:16.922Z,61.30
2017-08-31T08:58:45.014Z,64.30
2017-08-31T09:01:13.092Z,64.00
2017-08-31T09:03:41.194Z,61.10
2017-08-31T09:06:10.034Z,61.60
2017-08-31T09:08:38.106Z,60.00
2017-08-31T09:11:06.214Z,59.10
2017-08-31T09:13:34.286Z,59.10
2017-08-31T09:16:02.367Z,57.90
2017-08-31T09:18:30.459Z,59.60
2017-08-31T09:20:58.531Z,56.00
2017-08-31T09:23:27.411Z,55.60
2017-08-31T09:25:55.483Z,53.50
2017-08-31T09:28:24.431Z,55.50
2017-08-31T09:30:52.515Z,56.00
2017-08-31T09:33:20.587Z,53.10
2017-08-31T09:35:48.658Z,53.80
2017-08-31T09:38:16.755Z,56.50
2017-08-31T09:40:44.827Z,53.40
2017-08-31T09:43:12.923Z,55.10
2017-08-31T09:45:40.995Z,56.00
2017-08-31T09:48:09.486Z,53.60
2017-08-31T09:50:37.562Z,54.00
2017-08-31T09:53:05.658Z,55.30
2017-08-31T09:55:33.734Z,59.40
2017-08-31T09:58:01.835Z,59.30
2017-08-31T10:00:30.302Z,51.00
2017-08-31T10:02:58.382Z,49.20
2017-08-31T10:05:26.879Z,48.50
2017-08-31T10:07:54.978Z,43.70
2017-08-31T10:10:23.474Z,41.40
2017-08-31T10:12:51.551Z,41.90
2017-08-31T10:15:19.647Z,40.10
2017-08-31T10:17:47.747Z,40.80
2017-08-31T10:20:15.822Z,40.10
2017-08-31T10:22:43.926Z,40.00
2017-08-31T10:25:12.018Z,36.80
2017-08-31T10:27:40.091Z,39.50
2017-08-31T10:30:08.199Z,41.10
2017-08-31T10:32:36.299Z,40.80
2017-08-31T10:35:04.370Z,38.10
2017-08-31T10:37:32.870Z,34.20
2017-08-31T10:40:00.951Z,36.10
2017-08-31T10:42:29.026Z,34.80
2017-08-31T10:44:57.130Z,35.40
2017-08-31T10:47:27.450Z,34.70
2017-08-31T10:49:55.542Z,35.90
2017-08-31T10:52:23.646Z,36.40
2017-08-31T10:54:52.634Z,37.10
2017-08-31T10:57:21.471Z,38.30
2017-08-31T10:59:49.607Z,38.10
2017-08-31T11:02:18.450Z,40.00
2017-08-31T11:04:46.531Z,39.70
2017-08-31T11:07:15.047Z,40.10
2017-08-31T11:09:43.127Z,40.30
2017-08-31T11:12:11.197Z,41.60
2017-08-31T11:14:39.307Z,44.80
2017-08-31T11:17:08.146Z,46.10
2017-08-31T11:19:36.983Z,44.80
2017-08-31T11:22:05.079Z,45.80
2017-08-31T11:24:33.159Z,44.30
2017-08-31T11:27:03.186Z,44.70
2017-08-31T11:29:31.699Z,45.00
2017-08-31T11:31:59.770Z,43.60
2017-08-31T11:34:27.889Z,44.20
2017-08-31T11:36:55.879Z,45.00
2017-08-31T11:39:23.946Z,43.20
2017-08-31T11:41:52.027Z,41.50
2017-08-31T11:44:20.123Z,40.10
2017-08-31T11:46:48.218Z,41.50
2017-08-31T11:49:16.327Z,42.30
2017-08-31T11:51:44.407Z,39.50
2017-08-31T11:54:12.481Z,38.10
2017-08-31T11:56:40.578Z,35.80
2017-08-31T11:59:08.655Z,36.90
2017-08-31T12:01:36.764Z,38.00
2017-08-31T12:04:04.879Z,39.10
2017-08-31T12:06:33.003Z,38.10
2017-08-31T12:09:01.123Z,39.40
2017-08-31T12:11:29.263Z,41.80
2017-08-31T12:13:57.342Z,42.60
2017-08-31T12:16:25.423Z,42.40
2017-08-31T12:18:53.539Z,40.60
2017-08-31T12:21:22.383Z,45.70
2017-08-31T12:23:50.502Z,41.20
2017-08-31T12:26:18.970Z,38.00
2017-08-31T12:28:47.067Z,38.60
2017-08-31T12:31:15.934Z,38.30
2017-08-31T12:33:44.015Z,38.80
2017-08-31T12:36:12.110Z,38.30
2017-08-31T12:38:40.186Z,39.90
2017-08-31T12:41:08.287Z,39.50
2017-08-31T12:43:36.382Z,38.10
2017-08-31T12:46:04.928Z,38.20
2017-08-31T12:48:32.986Z,40.30
2017-08-31T12:51:01.063Z,42.40
2017-08-31T12:53:29.570Z,42.90
2017-08-31T12:55:57.637Z,41.80
2017-08-31T12:58:25.759Z,42.50
2017-08-31T13:00:53.834Z,41.50
2017-08-31T13:03:21.910Z,38.60
2017-08-31T13:05:50.006Z,38.60
2017-08-31T13:08:18.497Z,36.00
2017-08-31T13:10:46.568Z,37.30
2017-08-31T13:13:14.706Z,36.40
2017-08-31T13:15:42.782Z,37.00
2017-08-31T13:18:10.851Z,38.50
2017-08-31T13:20:39.719Z,37.70
2017-08-31T13:23:07.791Z,38.40
2017-08-31T13:25:35.867Z,38.40
2017-08-31T13:28:03.963Z,37.70
2017-08-31T13:30:32.804Z,39.30
2017-08-31T13:33:00.907Z,39.70
2017-08-31T13:35:29.751Z,38.30
2017-08-31T13:37:57.843Z,38.70
2017-08-31T13:40:25.914Z,38.50
2017-08-31T13:42:54.018Z,38.30
2017-08-31T13:45:22.488Z,39.90
2017-08-31T13:47:50.558Z,38.80
2017-08-31T13:50:18.658Z,38.90
2017-08-31T13:52:46.778Z,38.50
2017-08-31T13:55:14.846Z,39.00
2017-08-31T13:57:42.918Z,38.10
2017-08-31T14:00:11.014Z,38.50
2017-08-31T14:02:39.086Z,38.10
2017-08-31T14:05:07.182Z,38.70
2017-08-31T14:07:35.259Z,38.20
2017-08-31T14:10:03.373Z,38.60
2017-08-31T14:12:31.443Z,38.60
2017-08-31T14:14:59.515Z,40.30
2017-08-31T14:17:28.402Z,38.10
2017-08-31T14:19:56.496Z,39.60
2017-08-31T14:22:24.582Z,41.20
2017-08-31T14:24:52.651Z,41.90
2017-08-31T14:27:21.506Z,41.40
2017-08-31T14:29:49.575Z,40.80
2017-08-31T14:32:17.679Z,41.10
2017-08-31T14:34:45.750Z,38.20
2017-08-31T14:37:14.613Z,38.80
2017-08-31T14:39:42.695Z,38.60
2017-08-31T14:42:10.807Z,40.70
2017-08-31T14:44:38.878Z,42.40
2017-08-31T14:47:07.350Z,43.90
2017-08-31T14:49:35.438Z,44.40
2017-08-31T14:52:03.539Z,43.60
2017-08-31T14:54:32.027Z,43.30
2017-08-31T14:57:02.365Z,45.00
2017-08-31T14:59:30.426Z,44.10
2017-08-31T15:01:58.527Z,41.70
2017-08-31T15:04:26.636Z,41.60
2017-08-31T15:06:56.645Z,42.40
2017-08-31T15:09:25.181Z,41.30
2017-08-31T15:11:53.263Z,39.50
2017-08-31T15:14:21.360Z,40.10
2017-08-31T15:16:49.410Z,39.90
2017-08-31T15:19:17.899Z,40.50
2017-08-31T15:21:45.994Z,41.50
2017-08-31T15:24:14.066Z,42.60
2017-08-31T15:26:42.158Z,42.60
2017-08-31T15:29:11.050Z,43.30
2017-08-31T15:31:40.300Z,43.30
2017-08-31T15:34:08.419Z,44.60
2017-08-31T15:36:37.395Z,42.60
2017-08-31T15:39:05.873Z,41.80
2017-08-31T15:41:34.727Z,42.80
2017-08-31T15:44:02.823Z,42.80
2017-08-31T15:46:31.667Z,43.30
2017-08-31T15:48:59.764Z,43.80
2017-08-31T15:51:28.627Z,45.10
2017-08-31T15:53:56.722Z,43.60
2017-08-31T15:56:24.835Z,43.60
2017-08-31T15:58:53.307Z,43.60
2017-08-31T16:01:22.215Z,44.50
2017-08-31T16:03:50.306Z,43.00
2017-08-31T16:06:18.383Z,42.70
2017-08-31T16:08:46.486Z,43.60
2017-08-31T16:11:15.714Z,43.70
2017-08-31T16:13:43.782Z,43.60
2017-08-31T16:16:11.876Z,44.00
2017-08-31T16:18:41.058Z,42.00
2017-08-31T16:21:09.131Z,42.50
2017-08-31T16:23:37.231Z,42.80
2017-08-31T16:26:05.698Z,41.40
2017-08-31T16:28:33.799Z,40.20
2017-08-31T16:31:01.874Z,41.40
2017-08-31T16:33:29.994Z,39.30
2017-08-31T16:35:58.090Z,41.80
2017-08-31T16:38:26.169Z,41.60
2017-08-31T16:40:54.268Z,42.00
2017-08-31T16:43:22.338Z,42.00
2017-08-31T16:45:50.447Z,41.80
2017-08-31T16:48:19.728Z,41.70
2017-08-31T16:50:47.767Z,42.20
2017-08-31T16:53:16.294Z,40.80
2017-08-31T16:55:44.371Z,40.00
2017-08-31T16:58:12.467Z,41.10
2017-08-31T17:00:41.359Z,41.50
2017-08-31T17:03:09.431Z,39.50
2017-08-31T17:05:37.507Z,39.00
2017-08-31T17:08:05.607Z,38.60
2017-08-31T17:10:34.075Z,39.10
2017-08-31T17:13:02.179Z,39.70
2017-08-31T17:15:30.250Z,41.10
2017-08-31T17:17:58.341Z,41.30
2017-08-31T17:20:26.955Z,41.80
2017-08-31T17:22:55.057Z,41.80
2017-08-31T17:25:23.895Z,42.00
2017-08-31T17:27:52.763Z,40.90
2017-08-31T17:30:20.839Z,42.20
2017-08-31T17:32:48.948Z,42.10
2017-08-31T17:35:17.026Z,42.20
2017-08-31T17:37:45.491Z,42.60
2017-08-31T17:40:13.593Z,43.20
2017-08-31T17:42:42.431Z,43.20
2017-08-31T17:45:12.355Z,45.00
2017-08-31T17:47:40.965Z,46.60
2017-08-31T17:50:10.204Z,47.20
2017-08-31T17:52:38.691Z,44.90
2017-08-31T17:55:06.835Z,44.80
2017-08-31T17:57:34.912Z,44.30
2017-08-31T18:00:02.991Z,46.00
2017-08-31T18:02:31.491Z,45.80
2017-08-31T18:04:59.959Z,47.50
2017-08-31T18:07:28.889Z,46.60
2017-08-31T18:09:57.706Z,46.90
2017-08-31T18:12:25.779Z,48.00
2017-08-31T18:14:53.851Z,47.70
2017-08-31T18:17:22.732Z,46.50
2017-08-31T18:19:50.802Z,46.00
2017-08-31T18:22:22.967Z,46.80
2017-08-31T18:24:51.042Z,47.00
2017-08-31T18:27:21.711Z,46.60
2017-08-31T18:29:49.794Z,48.10
2017-08-31T18:32:17.866Z,49.30
2017-08-31T18:34:45.968Z,48.70
2017-08-31T18:37:17.354Z,47.60
2017-08-31T18:39:45.442Z,49.30
2017-08-31T18:42:13.547Z,48.70
2017-08-31T18:44:42.750Z,48.70
2017-08-31T18:47:17.529Z,49.70
2017-08-31T18:49:46.827Z,51.00
2017-08-31T18:52:15.690Z,50.70
2017-08-31T18:54:44.531Z,51.30
2017-08-31T18:57:13.465Z,50.90
2017-08-31T18:59:41.523Z,50.40
2017-08-31T19:02:09.598Z,51.10
2017-08-31T19:04:37.700Z,50.10
2017-08-31T19:07:05.855Z,50.90
2017-08-31T19:09:34.664Z,51.00
2017-08-31T19:12:02.763Z,51.00
2017-08-31T19:14:31.621Z,50.60
2017-08-31T19:17:00.651Z,50.10
2017-08-31T19:19:29.490Z,51.30
2017-08-31T19:21:58.730Z,50.60
2017-08-31T19:24:26.807Z,51.20
2017-08-31T19:26:56.055Z,51.30
2017-08-31T19:29:26.591Z,51.50
2017-08-31T19:31:54.668Z,51.20
2017-08-31T19:34:23.183Z,51.60
2017-08-31T19:36:51.288Z,52.10
2017-08-31T19:39:19.346Z,51.00
2017-08-31T19:41:48.231Z,50.60
2017-08-31T19:44:16.763Z,53.00
2017-08-31T19:46:44.832Z,52.10
2017-08-31T19:49:12.904Z,51.40
2017-08-31T19:51:40.971Z,51.60
2017-08-31T19:54:10.723Z,50.60
2017-08-31T19:56:38.798Z,51.40
2017-08-31T19:59:06.890Z,51.00
2017-08-31T20:01:34.962Z,51.50
2017-08-31T20:04:03.059Z,51.00
2017-08-31T20:06:31.971Z,51.00
2017-08-31T20:09:00.022Z,51.00
2017-08-31T20:11:28.102Z,51.10
2017-08-31T20:13:56.214Z,51.70
2017-08-31T20:16:25.799Z,52.40
2017-08-31T20:18:54.286Z,50.90
2017-08-31T20:21:22.755Z,50.40
2017-08-31T20:23:51.255Z,50.80
2017-08-31T20:26:19.327Z,51.00
2017-08-31T20:28:47.443Z,50.40
2017-08-31T20:31:15.935Z,50.30
2017-08-31T20:33:44.403Z,50.10
2017-08-31T20:36:12.904Z,49.80
2017-08-31T20:38:40.987Z,49.80
2017-08-31T20:41:09.064Z,50.40
2017-08-31T20:43:37.560Z,49.60
2017-08-31T20:46:06.049Z,50.00
2017-08-31T20:48:34.130Z,50.60
2017-08-31T20:51:02.222Z,50.80
2017-08-31T20:53:30.319Z,50.70
2017-08-31T20:55:58.415Z,51.20
2017-08-31T20:58:26.490Z,51.20
2017-08-31T21:00:54.582Z,52.00
2017-08-31T21:03:22.694Z,52.10
2017-08-31T21:05:50.776Z,52.20
2017-08-31T21:08:18.847Z,52.50
2017-08-31T21:10:47.727Z,52.20
2017-08-31T21:13:15.839Z,52.20
2017-08-31T21:15:45.810Z,51.80
2017-08-31T21:18:13.906Z,52.00
2017-08-31T21:20:42.002Z,51.70
2017-08-31T21:23:10.107Z,52.40
2017-08-31T21:25:38.228Z,52.80
2017-08-31T21:28:07.058Z,52.20
2017-08-31T21:30:35.134Z,52.20
2017-08-31T21:33:03.241Z,52.10
2017-08-31T21:35:31.311Z,51.70
2017-08-31T21:37:59.387Z,51.10
2017-08-31T21:40:27.482Z,51.20
2017-08-31T21:42:55.558Z,51.50
2017-08-31T21:45:24.399Z,51.10
2017-08-31T21:47:53.262Z,51.10
2017-08-31T21:50:21.362Z,51.60
2017-08-31T21:52:49.434Z,51.30
2017-08-31T21:55:17.528Z,52.00
2017-08-31T21:57:45.607Z,51.30
2017-08-31T22:00:14.475Z,51.70
2017-08-31T22:02:42.555Z,51.20
2017-08-31T22:05:10.635Z,51.70
2017-08-31T22:07:38.756Z,51.40
2017-08-31T22:10:06.802Z,51.30
2017-08-31T22:12:35.296Z,51.10
2017-08-31T22:15:03.395Z,51.70
2017-08-31T22:17:31.865Z,52.40
2017-08-31T22:20:00.729Z,52.40
2017-08-31T22:22:28.824Z,52.60
2017-08-31T22:24:57.329Z,53.20
2017-08-31T22:27:26.198Z,53.20
2017-08-31T22:29:54.642Z,53.70
2017-08-31T22:32:23.506Z,54.40
2017-08-31T22:34:51.579Z,54.50
2017-08-31T22:37:20.431Z,55.40
2017-08-31T22:39:48.519Z,55.30
2017-08-31T22:42:16.601Z,54.90
2017-08-31T22:44:44.707Z,55.50
2017-08-31T22:47:13.553Z,55.40
2017-08-31T22:49:41.624Z,54.80
2017-08-31T22:52:09.725Z,55.40
2017-08-31T22:54:48.754Z,56.10
2017-08-31T22:57:29.685Z,55.40
2017-08-31T22:59:57.775Z,55.10
2017-08-31T23:02:26.651Z,54.20
2017-08-31T23:04:54.690Z,54.50
2017-08-31T23:07:23.552Z,55.50
2017-08-31T23:09:52.398Z,56.60
2017-08-31T23:12:21.250Z,56.90
2017-08-31T23:14:49.723Z,55.70
2017-08-31T23:17:18.664Z,55.30
2017-08-31T23:19:46.699Z,55.40
2017-08-31T23:22:15.166Z,55.30
2017-08-31T23:24:43.659Z,55.50
2017-08-31T23:27:12.498Z,55.80
2017-08-31T23:29:40.595Z,55.60
2017-08-31T23:32:08.690Z,55.30
2017-08-31T23:34:36.767Z,55.40
2017-08-31T23:37:05.622Z,55.80
2017-08-31T23:39:33.694Z,56.30
2017-08-31T23:42:01.808Z,57.50
2017-08-31T23:44:29.882Z,59.90
2017-08-31T23:46:57.954Z,62.30
2017-08-31T23:49:26.586Z,61.60
2017-08-31T23:51:54.658Z,59.80
2017-08-31T23:54:22.799Z,58.90
2017-08-31T23:56:50.884Z,58.00
2017-08-31T23:59:18.957Z,58.60
